sensor_id;sensor_type;location;lat;lon;timestamp;P1;durP1;ratioP1;P2;durP2;ratioP2
60867;SDS011;46702;48.370;10.794;2023-01-26T00:01:26;13.77;;;6.60;;
60867;SDS011;46702;48.370;10.794;2023-01-26T00:03:55;18.00;;;5.82;;
60867;SDS011;46702;48.370;10.794;2023-01-26T00:06:21;14.48;;;5.35;;
60867;SDS011;46702;48.370;10.794;2023-01-26T00:08:48;10.88;;;5.20;;
60867;SDS011;46702;48.370;10.794;2023-01-26T00:11:25;12.10;;;6.15;;
60867;SDS011;46702;48.370;10.794;2023-01-26T00:13:53;10.95;;;6.05;;
60867;SDS011;46702;48.370;10.794;2023-01-26T00:16:20;11.20;;;6.00;;
60867;SDS011;46702;48.370;10.794;2023-01-26T00:18:46;13.38;;;6.43;;
60867;SDS011;46702;48.370;10.794;2023-01-26T00:21:13;13.63;;;5.63;;
60867;SDS011;46702;48.370;10.794;2023-01-26T00:23:40;13.75;;;5.47;;
60867;SDS011;46702;48.370;10.794;2023-01-26T00:26:06;14.98;;;6.43;;
60867;SDS011;46702;48.370;10.794;2023-01-26T00:28:37;13.93;;;5.70;;
60867;SDS011;46702;48.370;10.794;2023-01-26T00:31:09;18.55;;;6.90;;
60867;SDS011;46702;48.370;10.794;2023-01-26T00:33:39;13.65;;;5.40;;
60867;SDS011;46702;48.370;10.794;2023-01-26T00:36:05;16.80;;;6.85;;
60867;SDS011;46702;48.370;10.794;2023-01-26T00:38:31;12.43;;;6.03;;
60867;SDS011;46702;48.370;10.794;2023-01-26T00:40:56;18.60;;;6.13;;
60867;SDS011;46702;48.370;10.794;2023-01-26T00:43:22;12.45;;;5.80;;
60867;SDS011;46702;48.370;10.794;2023-01-26T00:45:48;12.77;;;6.28;;
60867;SDS011;46702;48.370;10.794;2023-01-26T00:48:13;15.40;;;6.93;;
60867;SDS011;46702;48.370;10.794;2023-01-26T00:50:39;17.58;;;7.93;;
60867;SDS011;46702;48.370;10.794;2023-01-26T00:53:05;17.95;;;7.75;;
60867;SDS011;46702;48.370;10.794;2023-01-26T00:55:31;15.40;;;6.38;;
60867;SDS011;46702;48.370;10.794;2023-01-26T00:57:57;17.08;;;7.00;;
60867;SDS011;46702;48.370;10.794;2023-01-26T01:00:26;17.02;;;6.63;;
60867;SDS011;46702;48.370;10.794;2023-01-26T01:02:52;14.48;;;6.85;;
60867;SDS011;46702;48.370;10.794;2023-01-26T01:05:20;18.77;;;7.70;;
60867;SDS011;46702;48.370;10.794;2023-01-26T01:07:49;13.45;;;6.63;;
60867;SDS011;46702;48.370;10.794;2023-01-26T01:10:15;22.42;;;7.78;;
60867;SDS011;46702;48.370;10.794;2023-01-26T01:12:41;17.00;;;7.22;;
60867;SDS011;46702;48.370;10.794;2023-01-26T01:15:06;14.45;;;5.70;;
60867;SDS011;46702;48.370;10.794;2023-01-26T01:17:33;12.23;;;5.85;;
60867;SDS011;46702;48.370;10.794;2023-01-26T01:20:00;11.70;;;5.43;;
60867;SDS011;46702;48.370;10.794;2023-01-26T01:22:26;11.63;;;5.90;;
60867;SDS011;46702;48.370;10.794;2023-01-26T01:24:52;14.80;;;6.68;;
60867;SDS011;46702;48.370;10.794;2023-01-26T01:27:17;10.73;;;5.55;;
60867;SDS011;46702;48.370;10.794;2023-01-26T01:29:43;8.88;;;5.03;;
60867;SDS011;46702;48.370;10.794;2023-01-26T01:32:09;12.98;;;5.65;;
60867;SDS011;46702;48.370;10.794;2023-01-26T01:34:34;14.13;;;6.45;;
60867;SDS011;46702;48.370;10.794;2023-01-26T01:37:00;8.75;;;5.50;;
60867;SDS011;46702;48.370;10.794;2023-01-26T01:39:25;10.93;;;5.75;;
60867;SDS011;46702;48.370;10.794;2023-01-26T01:41:51;12.57;;;7.03;;
60867;SDS011;46702;48.370;10.794;2023-01-26T01:44:21;18.33;;;8.82;;
60867;SDS011;46702;48.370;10.794;2023-01-26T01:46:58;15.95;;;8.90;;
60867;SDS011;46702;48.370;10.794;2023-01-26T01:49:33;15.60;;;7.35;;
60867;SDS011;46702;48.370;10.794;2023-01-26T01:54:51;13.85;;;6.25;;
60867;SDS011;46702;48.370;10.794;2023-01-26T01:57:22;14.30;;;7.38;;
60867;SDS011;46702;48.370;10.794;2023-01-26T02:00:00;18.13;;;7.60;;
60867;SDS011;46702;48.370;10.794;2023-01-26T02:02:30;22.75;;;8.95;;
60867;SDS011;46702;48.370;10.794;2023-01-26T02:04:56;35.08;;;14.90;;
60867;SDS011;46702;48.370;10.794;2023-01-26T02:07:27;19.90;;;8.07;;
60867;SDS011;46702;48.370;10.794;2023-01-26T02:09:56;14.25;;;6.82;;
60867;SDS011;46702;48.370;10.794;2023-01-26T02:12:41;18.70;;;7.30;;
60867;SDS011;46702;48.370;10.794;2023-01-26T02:15:07;15.00;;;6.43;;
60867;SDS011;46702;48.370;10.794;2023-01-26T02:17:34;14.10;;;6.85;;
60867;SDS011;46702;48.370;10.794;2023-01-26T02:20:07;13.70;;;6.85;;
60867;SDS011;46702;48.370;10.794;2023-01-26T02:25:37;11.98;;;5.40;;
60867;SDS011;46702;48.370;10.794;2023-01-26T02:28:13;19.13;;;6.53;;
60867;SDS011;46702;48.370;10.794;2023-01-26T02:30:39;13.77;;;6.38;;
60867;SDS011;46702;48.370;10.794;2023-01-26T02:33:05;15.95;;;6.45;;
60867;SDS011;46702;48.370;10.794;2023-01-26T02:35:32;17.33;;;6.97;;
60867;SDS011;46702;48.370;10.794;2023-01-26T02:37:58;17.60;;;7.20;;
60867;SDS011;46702;48.370;10.794;2023-01-26T02:43:07;18.25;;;6.40;;
60867;SDS011;46702;48.370;10.794;2023-01-26T02:45:34;10.40;;;5.60;;
60867;SDS011;46702;48.370;10.794;2023-01-26T02:48:00;11.63;;;5.68;;
60867;SDS011;46702;48.370;10.794;2023-01-26T02:50:29;17.35;;;7.43;;
60867;SDS011;46702;48.370;10.794;2023-01-26T02:52:55;13.40;;;6.25;;
60867;SDS011;46702;48.370;10.794;2023-01-26T02:55:22;8.75;;;5.70;;
60867;SDS011;46702;48.370;10.794;2023-01-26T02:57:52;9.05;;;5.30;;
60867;SDS011;46702;48.370;10.794;2023-01-26T03:00:23;17.92;;;6.38;;
60867;SDS011;46702;48.370;10.794;2023-01-26T03:02:51;12.55;;;6.47;;
60867;SDS011;46702;48.370;10.794;2023-01-26T03:05:19;14.98;;;6.53;;
60867;SDS011;46702;48.370;10.794;2023-01-26T03:07:45;18.40;;;6.85;;
60867;SDS011;46702;48.370;10.794;2023-01-26T03:10:11;15.30;;;6.93;;
60867;SDS011;46702;48.370;10.794;2023-01-26T03:12:37;12.05;;;5.72;;
60867;SDS011;46702;48.370;10.794;2023-01-26T03:15:04;14.70;;;6.20;;
60867;SDS011;46702;48.370;10.794;2023-01-26T03:17:49;14.07;;;7.00;;
60867;SDS011;46702;48.370;10.794;2023-01-26T03:20:15;19.70;;;7.60;;
60867;SDS011;46702;48.370;10.794;2023-01-26T03:22:59;20.05;;;8.80;;
60867;SDS011;46702;48.370;10.794;2023-01-26T03:25:43;13.25;;;7.70;;
60867;SDS011;46702;48.370;10.794;2023-01-26T03:28:28;15.07;;;7.47;;
60867;SDS011;46702;48.370;10.794;2023-01-26T03:30:54;14.52;;;6.68;;
60867;SDS011;46702;48.370;10.794;2023-01-26T03:33:21;17.20;;;8.65;;
60867;SDS011;46702;48.370;10.794;2023-01-26T03:35:47;17.63;;;8.07;;
60867;SDS011;46702;48.370;10.794;2023-01-26T03:38:12;15.80;;;8.07;;
60867;SDS011;46702;48.370;10.794;2023-01-26T03:40:38;15.52;;;7.82;;
60867;SDS011;46702;48.370;10.794;2023-01-26T03:43:22;18.05;;;8.07;;
60867;SDS011;46702;48.370;10.794;2023-01-26T03:46:07;13.27;;;6.95;;
60867;SDS011;46702;48.370;10.794;2023-01-26T03:48:51;16.25;;;7.38;;
60867;SDS011;46702;48.370;10.794;2023-01-26T03:51:36;16.67;;;8.63;;
60867;SDS011;46702;48.370;10.794;2023-01-26T03:54:20;17.15;;;7.75;;
60867;SDS011;46702;48.370;10.794;2023-01-26T03:57:04;17.23;;;7.22;;
60867;SDS011;46702;48.370;10.794;2023-01-26T03:59:30;18.02;;;7.03;;
60867;SDS011;46702;48.370;10.794;2023-01-26T04:02:03;16.88;;;7.40;;
60867;SDS011;46702;48.370;10.794;2023-01-26T04:04:48;12.93;;;6.72;;
60867;SDS011;46702;48.370;10.794;2023-01-26T04:07:33;14.40;;;7.05;;
60867;SDS011;46702;48.370;10.794;2023-01-26T04:10:17;10.10;;;5.50;;
60867;SDS011;46702;48.370;10.794;2023-01-26T04:12:42;14.68;;;7.80;;
60867;SDS011;46702;48.370;10.794;2023-01-26T04:15:08;15.35;;;6.07;;
60867;SDS011;46702;48.370;10.794;2023-01-26T04:17:52;17.10;;;6.38;;
60867;SDS011;46702;48.370;10.794;2023-01-26T04:20:36;16.95;;;7.75;;
60867;SDS011;46702;48.370;10.794;2023-01-26T04:23:21;11.75;;;6.82;;
60867;SDS011;46702;48.370;10.794;2023-01-26T04:25:46;16.45;;;6.65;;
60867;SDS011;46702;48.370;10.794;2023-01-26T04:28:12;18.02;;;8.05;;
60867;SDS011;46702;48.370;10.794;2023-01-26T04:30:38;20.52;;;7.15;;
60867;SDS011;46702;48.370;10.794;2023-01-26T04:33:03;13.65;;;7.78;;
60867;SDS011;46702;48.370;10.794;2023-01-26T04:35:29;16.05;;;8.40;;
60867;SDS011;46702;48.370;10.794;2023-01-26T04:37:55;21.25;;;8.70;;
60867;SDS011;46702;48.370;10.794;2023-01-26T04:40:21;16.35;;;8.10;;
60867;SDS011;46702;48.370;10.794;2023-01-26T04:42:46;21.98;;;8.80;;
60867;SDS011;46702;48.370;10.794;2023-01-26T04:45:12;13.05;;;6.35;;
60867;SDS011;46702;48.370;10.794;2023-01-26T04:47:37;14.68;;;6.72;;
60867;SDS011;46702;48.370;10.794;2023-01-26T04:50:03;10.13;;;5.45;;
60867;SDS011;46702;48.370;10.794;2023-01-26T04:52:29;16.48;;;7.97;;
60867;SDS011;46702;48.370;10.794;2023-01-26T04:54:54;13.68;;;6.30;;
60867;SDS011;46702;48.370;10.794;2023-01-26T04:57:20;20.13;;;7.40;;
60867;SDS011;46702;48.370;10.794;2023-01-26T04:59:47;13.85;;;7.00;;
60867;SDS011;46702;48.370;10.794;2023-01-26T05:02:13;14.32;;;6.75;;
60867;SDS011;46702;48.370;10.794;2023-01-26T05:04:39;21.30;;;6.32;;
60867;SDS011;46702;48.370;10.794;2023-01-26T05:07:04;18.10;;;7.63;;
60867;SDS011;46702;48.370;10.794;2023-01-26T05:09:30;13.57;;;6.78;;
60867;SDS011;46702;48.370;10.794;2023-01-26T05:11:55;11.65;;;5.57;;
60867;SDS011;46702;48.370;10.794;2023-01-26T05:14:44;10.90;;;6.05;;
60867;SDS011;46702;48.370;10.794;2023-01-26T05:17:09;15.93;;;6.70;;
60867;SDS011;46702;48.370;10.794;2023-01-26T05:19:38;13.15;;;6.60;;
60867;SDS011;46702;48.370;10.794;2023-01-26T05:24:29;11.95;;;5.47;;
60867;SDS011;46702;48.370;10.794;2023-01-26T05:26:55;14.82;;;7.45;;
60867;SDS011;46702;48.370;10.794;2023-01-26T05:29:40;15.35;;;7.47;;
60867;SDS011;46702;48.370;10.794;2023-01-26T05:32:06;14.93;;;5.22;;
60867;SDS011;46702;48.370;10.794;2023-01-26T05:34:31;16.40;;;6.55;;
60867;SDS011;46702;48.370;10.794;2023-01-26T05:36:57;12.40;;;5.80;;
60867;SDS011;46702;48.370;10.794;2023-01-26T05:39:23;14.13;;;5.68;;
60867;SDS011;46702;48.370;10.794;2023-01-26T05:41:48;16.83;;;7.10;;
60867;SDS011;46702;48.370;10.794;2023-01-26T05:44:14;15.13;;;7.00;;
60867;SDS011;46702;48.370;10.794;2023-01-26T05:46:40;16.50;;;8.27;;
60867;SDS011;46702;48.370;10.794;2023-01-26T05:49:06;14.27;;;6.55;;
60867;SDS011;46702;48.370;10.794;2023-01-26T05:51:31;14.77;;;6.50;;
60867;SDS011;46702;48.370;10.794;2023-01-26T05:53:57;9.35;;;4.57;;
60867;SDS011;46702;48.370;10.794;2023-01-26T05:56:22;10.05;;;5.68;;
60867;SDS011;46702;48.370;10.794;2023-01-26T05:58:48;11.82;;;6.25;;
60867;SDS011;46702;48.370;10.794;2023-01-26T06:01:13;14.15;;;7.32;;
60867;SDS011;46702;48.370;10.794;2023-01-26T06:03:39;19.80;;;6.80;;
60867;SDS011;46702;48.370;10.794;2023-01-26T06:06:04;15.32;;;5.85;;
60867;SDS011;46702;48.370;10.794;2023-01-26T06:08:30;10.75;;;4.85;;
60867;SDS011;46702;48.370;10.794;2023-01-26T06:10:59;15.13;;;5.53;;
60867;SDS011;46702;48.370;10.794;2023-01-26T06:13:25;11.10;;;5.30;;
60867;SDS011;46702;48.370;10.794;2023-01-26T06:15:51;11.02;;;6.78;;
60867;SDS011;46702;48.370;10.794;2023-01-26T06:18:16;4.75;;;3.33;;
60867;SDS011;46702;48.370;10.794;2023-01-26T06:20:42;12.30;;;5.25;;
60867;SDS011;46702;48.370;10.794;2023-01-26T06:23:08;17.20;;;6.68;;
60867;SDS011;46702;48.370;10.794;2023-01-26T06:25:36;9.18;;;5.32;;
60867;SDS011;46702;48.370;10.794;2023-01-26T06:28:03;10.18;;;4.93;;
60867;SDS011;46702;48.370;10.794;2023-01-26T06:30:29;16.60;;;6.28;;
60867;SDS011;46702;48.370;10.794;2023-01-26T06:32:55;17.27;;;7.35;;
60867;SDS011;46702;48.370;10.794;2023-01-26T06:35:21;11.38;;;6.10;;
60867;SDS011;46702;48.370;10.794;2023-01-26T06:37:47;11.40;;;5.85;;
60867;SDS011;46702;48.370;10.794;2023-01-26T06:40:14;14.02;;;6.43;;
60867;SDS011;46702;48.370;10.794;2023-01-26T06:42:45;14.35;;;6.15;;
60867;SDS011;46702;48.370;10.794;2023-01-26T06:45:12;7.72;;;4.97;;
60867;SDS011;46702;48.370;10.794;2023-01-26T06:47:42;9.13;;;4.68;;
60867;SDS011;46702;48.370;10.794;2023-01-26T06:50:13;14.05;;;5.53;;
60867;SDS011;46702;48.370;10.794;2023-01-26T06:52:50;24.13;;;6.90;;
60867;SDS011;46702;48.370;10.794;2023-01-26T06:55:21;12.23;;;5.28;;
60867;SDS011;46702;48.370;10.794;2023-01-26T06:57:56;15.43;;;6.97;;
60867;SDS011;46702;48.370;10.794;2023-01-26T07:00:21;11.57;;;5.90;;
60867;SDS011;46702;48.370;10.794;2023-01-26T07:02:47;15.80;;;7.03;;
60867;SDS011;46702;48.370;10.794;2023-01-26T07:05:12;8.38;;;4.60;;
60867;SDS011;46702;48.370;10.794;2023-01-26T07:07:38;11.65;;;5.43;;
60867;SDS011;46702;48.370;10.794;2023-01-26T07:10:04;15.40;;;6.10;;
60867;SDS011;46702;48.370;10.794;2023-01-26T07:12:39;12.23;;;5.32;;
60867;SDS011;46702;48.370;10.794;2023-01-26T07:15:06;11.02;;;5.15;;
60867;SDS011;46702;48.370;10.794;2023-01-26T07:17:33;10.32;;;6.25;;
60867;SDS011;46702;48.370;10.794;2023-01-26T07:19:58;14.60;;;8.15;;
60867;SDS011;46702;48.370;10.794;2023-01-26T07:22:24;11.05;;;5.85;;
60867;SDS011;46702;48.370;10.794;2023-01-26T07:24:49;17.40;;;6.10;;
60867;SDS011;46702;48.370;10.794;2023-01-26T07:27:15;10.43;;;6.68;;
60867;SDS011;46702;48.370;10.794;2023-01-26T07:29:41;9.27;;;4.82;;
60867;SDS011;46702;48.370;10.794;2023-01-26T07:32:06;13.18;;;5.78;;
60867;SDS011;46702;48.370;10.794;2023-01-26T07:34:32;18.48;;;8.43;;
60867;SDS011;46702;48.370;10.794;2023-01-26T07:36:57;14.90;;;4.90;;
60867;SDS011;46702;48.370;10.794;2023-01-26T07:39:23;15.57;;;6.13;;
60867;SDS011;46702;48.370;10.794;2023-01-26T07:41:49;9.90;;;4.75;;
60867;SDS011;46702;48.370;10.794;2023-01-26T07:44:14;14.40;;;5.97;;
60867;SDS011;46702;48.370;10.794;2023-01-26T07:46:40;11.93;;;6.47;;
60867;SDS011;46702;48.370;10.794;2023-01-26T07:49:06;15.75;;;7.38;;
60867;SDS011;46702;48.370;10.794;2023-01-26T07:51:32;31.42;;;24.55;;
60867;SDS011;46702;48.370;10.794;2023-01-26T07:53:57;21.58;;;9.45;;
60867;SDS011;46702;48.370;10.794;2023-01-26T07:56:23;13.27;;;6.30;;
60867;SDS011;46702;48.370;10.794;2023-01-26T07:58:49;15.38;;;5.65;;
60867;SDS011;46702;48.370;10.794;2023-01-26T08:01:16;11.45;;;6.90;;
60867;SDS011;46702;48.370;10.794;2023-01-26T08:03:42;16.20;;;6.65;;
60867;SDS011;46702;48.370;10.794;2023-01-26T08:06:09;11.57;;;5.43;;
60867;SDS011;46702;48.370;10.794;2023-01-26T08:08:36;13.15;;;5.22;;
60867;SDS011;46702;48.370;10.794;2023-01-26T08:13:31;9.15;;;4.45;;
60867;SDS011;46702;48.370;10.794;2023-01-26T08:16:00;14.85;;;6.15;;
60867;SDS011;46702;48.370;10.794;2023-01-26T08:18:33;12.57;;;5.32;;
60867;SDS011;46702;48.370;10.794;2023-01-26T08:21:02;15.70;;;5.25;;
60867;SDS011;46702;48.370;10.794;2023-01-26T08:23:28;9.45;;;5.22;;
60867;SDS011;46702;48.370;10.794;2023-01-26T08:25:54;14.18;;;5.00;;
60867;SDS011;46702;48.370;10.794;2023-01-26T08:28:24;13.38;;;5.38;;
60867;SDS011;46702;48.370;10.794;2023-01-26T08:30:49;9.32;;;5.13;;
60867;SDS011;46702;48.370;10.794;2023-01-26T08:33:15;8.23;;;4.68;;
60867;SDS011;46702;48.370;10.794;2023-01-26T08:35:41;7.28;;;4.15;;
60867;SDS011;46702;48.370;10.794;2023-01-26T08:38:07;14.98;;;5.13;;
60867;SDS011;46702;48.370;10.794;2023-01-26T08:40:32;15.88;;;5.95;;
60867;SDS011;46702;48.370;10.794;2023-01-26T08:42:59;9.55;;;5.85;;
60867;SDS011;46702;48.370;10.794;2023-01-26T08:45:25;11.02;;;6.05;;
60867;SDS011;46702;48.370;10.794;2023-01-26T08:47:51;12.02;;;6.10;;
60867;SDS011;46702;48.370;10.794;2023-01-26T08:50:16;16.52;;;7.47;;
60867;SDS011;46702;48.370;10.794;2023-01-26T08:52:42;11.30;;;6.75;;
60867;SDS011;46702;48.370;10.794;2023-01-26T08:55:08;11.20;;;5.72;;
60867;SDS011;46702;48.370;10.794;2023-01-26T08:57:34;11.02;;;5.88;;
60867;SDS011;46702;48.370;10.794;2023-01-26T08:59:59;12.27;;;7.00;;
60867;SDS011;46702;48.370;10.794;2023-01-26T09:02:25;16.90;;;6.22;;
60867;SDS011;46702;48.370;10.794;2023-01-26T09:04:51;13.48;;;6.00;;
60867;SDS011;46702;48.370;10.794;2023-01-26T09:07:16;11.45;;;5.88;;
60867;SDS011;46702;48.370;10.794;2023-01-26T09:09:42;9.63;;;5.40;;
60867;SDS011;46702;48.370;10.794;2023-01-26T09:12:08;13.05;;;5.97;;
60867;SDS011;46702;48.370;10.794;2023-01-26T09:14:34;11.68;;;5.68;;
60867;SDS011;46702;48.370;10.794;2023-01-26T09:16:59;10.70;;;5.55;;
60867;SDS011;46702;48.370;10.794;2023-01-26T09:19:25;12.93;;;6.35;;
60867;SDS011;46702;48.370;10.794;2023-01-26T09:21:51;11.10;;;5.28;;
60867;SDS011;46702;48.370;10.794;2023-01-26T09:24:18;18.30;;;8.18;;
60867;SDS011;46702;48.370;10.794;2023-01-26T09:26:44;14.52;;;6.25;;
60867;SDS011;46702;48.370;10.794;2023-01-26T09:29:09;14.85;;;6.50;;
60867;SDS011;46702;48.370;10.794;2023-01-26T09:31:35;18.45;;;6.72;;
60867;SDS011;46702;48.370;10.794;2023-01-26T09:34:00;16.27;;;7.20;;
60867;SDS011;46702;48.370;10.794;2023-01-26T09:36:26;15.43;;;6.07;;
60867;SDS011;46702;48.370;10.794;2023-01-26T09:38:52;14.18;;;6.72;;
60867;SDS011;46702;48.370;10.794;2023-01-26T09:44:15;12.82;;;6.30;;
60867;SDS011;46702;48.370;10.794;2023-01-26T09:49:25;14.63;;;7.60;;
60867;SDS011;46702;48.370;10.794;2023-01-26T09:52:12;13.52;;;7.65;;
60867;SDS011;46702;48.370;10.794;2023-01-26T09:54:48;16.73;;;8.73;;
60867;SDS011;46702;48.370;10.794;2023-01-26T09:57:17;17.63;;;7.68;;
60867;SDS011;46702;48.370;10.794;2023-01-26T10:00:05;13.60;;;6.40;;
60867;SDS011;46702;48.370;10.794;2023-01-26T10:08:13;14.52;;;6.93;;
60867;SDS011;46702;48.370;10.794;2023-01-26T10:13:30;18.73;;;8.95;;
60867;SDS011;46702;48.370;10.794;2023-01-26T10:15:57;16.88;;;8.20;;
60867;SDS011;46702;48.370;10.794;2023-01-26T10:18:31;16.45;;;7.47;;
60867;SDS011;46702;48.370;10.794;2023-01-26T10:21:16;19.40;;;7.70;;
60867;SDS011;46702;48.370;10.794;2023-01-26T10:23:46;15.68;;;6.90;;
60867;SDS011;46702;48.370;10.794;2023-01-26T10:26:20;15.15;;;7.90;;
60867;SDS011;46702;48.370;10.794;2023-01-26T10:28:47;13.80;;;7.15;;
60867;SDS011;46702;48.370;10.794;2023-01-26T10:31:16;18.55;;;7.25;;
60867;SDS011;46702;48.370;10.794;2023-01-26T10:33:48;11.73;;;6.90;;
60867;SDS011;46702;48.370;10.794;2023-01-26T10:36:20;20.23;;;8.32;;
60867;SDS011;46702;48.370;10.794;2023-01-26T10:38:46;14.32;;;7.45;;
60867;SDS011;46702;48.370;10.794;2023-01-26T10:43:41;12.07;;;6.63;;
60867;SDS011;46702;48.370;10.794;2023-01-26T10:46:27;11.70;;;6.45;;
60867;SDS011;46702;48.370;10.794;2023-01-26T10:48:55;12.65;;;6.05;;
60867;SDS011;46702;48.370;10.794;2023-01-26T10:51:30;14.10;;;6.18;;
60867;SDS011;46702;48.370;10.794;2023-01-26T10:54:13;13.50;;;6.03;;
60867;SDS011;46702;48.370;10.794;2023-01-26T10:56:46;11.48;;;5.65;;
60867;SDS011;46702;48.370;10.794;2023-01-26T10:59:29;10.80;;;4.90;;
60867;SDS011;46702;48.370;10.794;2023-01-26T11:01:59;8.95;;;4.88;;
60867;SDS011;46702;48.370;10.794;2023-01-26T11:05:00;11.38;;;5.93;;
60867;SDS011;46702;48.370;10.794;2023-01-26T11:10:15;10.98;;;3.67;;
60867;SDS011;46702;48.370;10.794;2023-01-26T11:12:46;9.70;;;4.68;;
60867;SDS011;46702;48.370;10.794;2023-01-26T11:15:16;14.15;;;6.63;;
60867;SDS011;46702;48.370;10.794;2023-01-26T11:17:49;11.82;;;5.65;;
60867;SDS011;46702;48.370;10.794;2023-01-26T11:25:36;8.70;;;4.85;;
60867;SDS011;46702;48.370;10.794;2023-01-26T11:28:16;9.05;;;4.85;;
60867;SDS011;46702;48.370;10.794;2023-01-26T11:31:00;13.65;;;5.60;;
60867;SDS011;46702;48.370;10.794;2023-01-26T11:33:38;11.52;;;4.78;;
60867;SDS011;46702;48.370;10.794;2023-01-26T11:36:37;8.55;;;4.90;;
60867;SDS011;46702;48.370;10.794;2023-01-26T11:44:35;7.47;;;4.53;;
60867;SDS011;46702;48.370;10.794;2023-01-26T12:00:47;13.98;;;5.13;;
60867;SDS011;46702;48.370;10.794;2023-01-26T12:03:37;11.55;;;5.05;;
60867;SDS011;46702;48.370;10.794;2023-01-26T12:06:06;11.13;;;5.20;;
60867;SDS011;46702;48.370;10.794;2023-01-26T12:08:39;10.98;;;4.25;;
60867;SDS011;46702;48.370;10.794;2023-01-26T12:16:39;9.13;;;4.57;;
60867;SDS011;46702;48.370;10.794;2023-01-26T12:22:03;8.60;;;4.30;;
60867;SDS011;46702;48.370;10.794;2023-01-26T12:24:39;6.82;;;4.30;;
60867;SDS011;46702;48.370;10.794;2023-01-26T12:27:13;8.55;;;4.05;;
60867;SDS011;46702;48.370;10.794;2023-01-26T12:29:48;16.00;;;4.65;;
60867;SDS011;46702;48.370;10.794;2023-01-26T12:32:20;10.85;;;3.92;;
60867;SDS011;46702;48.370;10.794;2023-01-26T12:34:46;5.05;;;3.03;;
60867;SDS011;46702;48.370;10.794;2023-01-26T12:45:26;7.75;;;3.08;;
60867;SDS011;46702;48.370;10.794;2023-01-26T12:48:00;7.00;;;4.65;;
60867;SDS011;46702;48.370;10.794;2023-01-26T12:50:42;5.63;;;3.22;;
60867;SDS011;46702;48.370;10.794;2023-01-26T12:53:30;6.03;;;3.63;;
60867;SDS011;46702;48.370;10.794;2023-01-26T12:56:35;4.32;;;2.78;;
60867;SDS011;46702;48.370;10.794;2023-01-26T12:59:13;8.60;;;3.75;;
60867;SDS011;46702;48.370;10.794;2023-01-26T13:01:52;6.43;;;3.20;;
60867;SDS011;46702;48.370;10.794;2023-01-26T13:04:17;8.95;;;4.22;;
60867;SDS011;46702;48.370;10.794;2023-01-26T13:06:43;6.95;;;3.42;;
60867;SDS011;46702;48.370;10.794;2023-01-26T13:11:49;6.45;;;3.42;;
60867;SDS011;46702;48.370;10.794;2023-01-26T13:14:24;8.30;;;3.95;;
60867;SDS011;46702;48.370;10.794;2023-01-26T13:24:43;6.53;;;3.10;;
60867;SDS011;46702;48.370;10.794;2023-01-26T13:35:12;7.38;;;4.00;;
60867;SDS011;46702;48.370;10.794;2023-01-26T13:40:35;5.57;;;3.58;;
60867;SDS011;46702;48.370;10.794;2023-01-26T13:48:29;6.25;;;2.90;;
60867;SDS011;46702;48.370;10.794;2023-01-26T13:51:02;6.63;;;3.17;;
60867;SDS011;46702;48.370;10.794;2023-01-26T13:53:32;4.05;;;3.33;;
60867;SDS011;46702;48.370;10.794;2023-01-26T13:56:01;7.53;;;3.42;;
60867;SDS011;46702;48.370;10.794;2023-01-26T13:58:30;5.40;;;3.22;;
60867;SDS011;46702;48.370;10.794;2023-01-26T14:00:56;6.95;;;4.47;;
60867;SDS011;46702;48.370;10.794;2023-01-26T14:03:26;8.55;;;4.35;;
60867;SDS011;46702;48.370;10.794;2023-01-26T14:05:53;6.13;;;3.28;;
60867;SDS011;46702;48.370;10.794;2023-01-26T14:08:21;6.75;;;3.72;;
60867;SDS011;46702;48.370;10.794;2023-01-26T14:10:47;8.27;;;3.30;;
60867;SDS011;46702;48.370;10.794;2023-01-26T14:13:26;3.97;;;3.13;;
60867;SDS011;46702;48.370;10.794;2023-01-26T14:15:58;9.05;;;4.00;;
60867;SDS011;46702;48.370;10.794;2023-01-26T14:18:25;7.03;;;3.47;;
60867;SDS011;46702;48.370;10.794;2023-01-26T14:20:58;7.75;;;3.50;;
60867;SDS011;46702;48.370;10.794;2023-01-26T14:23:32;6.47;;;3.10;;
60867;SDS011;46702;48.370;10.794;2023-01-26T14:26:00;5.03;;;3.20;;
60867;SDS011;46702;48.370;10.794;2023-01-26T14:28:32;6.57;;;3.22;;
60867;SDS011;46702;48.370;10.794;2023-01-26T14:31:05;4.20;;;3.47;;
60867;SDS011;46702;48.370;10.794;2023-01-26T14:33:33;6.78;;;3.58;;
60867;SDS011;46702;48.370;10.794;2023-01-26T14:36:02;6.30;;;3.83;;
60867;SDS011;46702;48.370;10.794;2023-01-26T14:38:29;4.85;;;2.90;;
60867;SDS011;46702;48.370;10.794;2023-01-26T14:41:08;5.28;;;3.38;;
60867;SDS011;46702;48.370;10.794;2023-01-26T14:43:39;7.15;;;3.08;;
60867;SDS011;46702;48.370;10.794;2023-01-26T14:46:17;6.65;;;4.00;;
60867;SDS011;46702;48.370;10.794;2023-01-26T14:48:50;6.20;;;3.38;;
60867;SDS011;46702;48.370;10.794;2023-01-26T14:51:21;6.93;;;2.72;;
60867;SDS011;46702;48.370;10.794;2023-01-26T14:53:49;6.50;;;3.37;;
60867;SDS011;46702;48.370;10.794;2023-01-26T14:56:22;8.02;;;2.90;;
60867;SDS011;46702;48.370;10.794;2023-01-26T14:58:59;4.47;;;3.30;;
60867;SDS011;46702;48.370;10.794;2023-01-26T15:01:26;7.25;;;3.28;;
60867;SDS011;46702;48.370;10.794;2023-01-26T15:04:00;4.50;;;2.90;;
60867;SDS011;46702;48.370;10.794;2023-01-26T15:06:29;6.10;;;3.60;;
60867;SDS011;46702;48.370;10.794;2023-01-26T15:09:17;4.25;;;2.88;;
60867;SDS011;46702;48.370;10.794;2023-01-26T15:11:50;6.03;;;3.03;;
60867;SDS011;46702;48.370;10.794;2023-01-26T15:17:27;5.93;;;3.95;;
60867;SDS011;46702;48.370;10.794;2023-01-26T15:19:54;6.60;;;3.80;;
60867;SDS011;46702;48.370;10.794;2023-01-26T15:22:21;7.57;;;3.65;;
60867;SDS011;46702;48.370;10.794;2023-01-26T15:24:59;8.57;;;4.30;;
60867;SDS011;46702;48.370;10.794;2023-01-26T15:27:32;5.35;;;3.40;;
60867;SDS011;46702;48.370;10.794;2023-01-26T15:29:59;4.95;;;3.45;;
60867;SDS011;46702;48.370;10.794;2023-01-26T15:32:29;9.50;;;4.68;;
60867;SDS011;46702;48.370;10.794;2023-01-26T15:37:32;8.57;;;4.38;;
60867;SDS011;46702;48.370;10.794;2023-01-26T15:39:58;5.03;;;3.58;;
60867;SDS011;46702;48.370;10.794;2023-01-26T15:42:25;6.20;;;3.78;;
60867;SDS011;46702;48.370;10.794;2023-01-26T15:44:54;6.03;;;3.75;;
60867;SDS011;46702;48.370;10.794;2023-01-26T15:47:19;5.45;;;3.60;;
60867;SDS011;46702;48.370;10.794;2023-01-26T15:49:45;5.28;;;3.20;;
60867;SDS011;46702;48.370;10.794;2023-01-26T15:52:12;9.60;;;3.72;;
60867;SDS011;46702;48.370;10.794;2023-01-26T15:54:42;6.80;;;3.53;;
60867;SDS011;46702;48.370;10.794;2023-01-26T15:57:09;4.43;;;3.30;;
60867;SDS011;46702;48.370;10.794;2023-01-26T15:59:35;7.10;;;3.38;;
60867;SDS011;46702;48.370;10.794;2023-01-26T16:02:01;6.88;;;3.80;;
60867;SDS011;46702;48.370;10.794;2023-01-26T16:04:26;4.68;;;3.75;;
60867;SDS011;46702;48.370;10.794;2023-01-26T16:06:52;7.47;;;3.75;;
60867;SDS011;46702;48.370;10.794;2023-01-26T16:09:18;6.00;;;3.15;;
60867;SDS011;46702;48.370;10.794;2023-01-26T16:11:47;5.30;;;2.80;;
60867;SDS011;46702;48.370;10.794;2023-01-26T16:14:16;7.60;;;3.35;;
60867;SDS011;46702;48.370;10.794;2023-01-26T16:16:42;7.30;;;3.17;;
60867;SDS011;46702;48.370;10.794;2023-01-26T16:19:08;6.68;;;3.33;;
60867;SDS011;46702;48.370;10.794;2023-01-26T16:21:35;5.93;;;3.55;;
60867;SDS011;46702;48.370;10.794;2023-01-26T16:24:03;7.70;;;3.78;;
60867;SDS011;46702;48.370;10.794;2023-01-26T16:26:29;8.15;;;3.03;;